Últimos artigos:
Visita à exposição MOTION no Guggenheim de Bilbao
MSK144, FT8… using an IC-9700 and WSJT-X
Resolvendo um problema de áudio no GNU Radio
Converter um número Real para o formato binário em vírgula flutuante segundo a Norma IEEE-754
VirtualBox sobre Debian 10 (buster) não encontra dispositivos USB
Falta de som no Morse Runner em Linux?
Últimas fotos:
Últimos METARs:
LPAZ 050100Z 21008KT 9999 FEW010 BKN046 22...
LPFR 050100Z VRB02KT CAVOK 20/11 Q1019=
LPHR 042000Z 28011KT 9999 FEW020 22/18 Q10...
LPLA 050100Z /////KT 6000 -RADZ SCT006 SCT...
LPMA 050100Z 02005KT 350V060 9999 FEW016 2...
LPPD 050100Z 32004KT 300V360 9999 FEW007 2...
LPPR 050100Z 00000KT 9000 4600N NSC 12/12 ...
LPPS 050100Z 32006KT 9999 FEW015 20/17 Q10...
LPPT 050100Z 01004KT CAVOK 21/02 Q1020=
Últimos QSOs:
2022/08/06-20:45 6m CT1ILT (FILIPE)
2022/08/05-09:40 2m CT2HKN (MG)
2022/08/05-09:37 2m CT1HIX/P ((GOMES))
2022/08/05-09:36 2m CT1MH/P (FRANCISCO)
2022/08/05-09:35 2m CT2HOV/P (NUNO)
2022/08/04-16:57 2m EA8ARI (RAFA)
  UTC
Rpi-6 CPU Temp: 0.0 °C (19Z)
IN51oq 0142Z /////KT //// 24/15 Q1021=
322848